createdAt,value
2023-01-17T00:02:31.634Z,0.60
2023-01-17T00:07:52.536Z,0.83
2023-01-17T00:12:57.471Z,0.60
2023-01-17T00:18:01.958Z,0.60
2023-01-17T00:23:25.278Z,0.70
2023-01-17T00:28:28.067Z,0.70
2023-01-17T00:33:31.792Z,0.80
2023-01-17T00:38:36.481Z,0.70
2023-01-17T00:43:57.366Z,0.73
2023-01-17T00:49:19.661Z,1.20
2023-01-17T00:54:40.321Z,0.73
2023-01-17T01:00:00.950Z,0.90
2023-01-17T01:05:23.547Z,0.90
2023-01-17T01:10:44.118Z,0.83
2023-01-17T01:16:04.987Z,1.07
2023-01-17T01:21:26.932Z,1.00
2023-01-17T01:26:47.569Z,0.90
2023-01-17T01:32:08.282Z,1.00
2023-01-17T01:37:12.826Z,0.70
2023-01-17T01:42:17.193Z,1.10
2023-01-17T01:47:25.528Z,1.10
2023-01-17T01:52:32.860Z,1.10
2023-01-17T01:57:41.279Z,1.20
2023-01-17T02:02:47.033Z,1.27
2023-01-17T02:07:54.561Z,1.10
2023-01-17T02:13:01.689Z,1.53
2023-01-17T02:18:14.904Z,0.90
2023-01-17T02:23:45.233Z,1.20
2023-01-17T02:29:07.005Z,0.90
2023-01-17T02:34:21.176Z,1.50
2023-01-17T02:39:31.180Z,0.90
2023-01-17T02:44:41.360Z,0.90
2023-01-17T02:49:45.879Z,1.10
2023-01-17T02:55:03.150Z,1.30
2023-01-17T03:00:16.346Z,1.10
2023-01-17T03:05:26.832Z,1.43
2023-01-17T03:10:32.114Z,1.33
2023-01-17T03:15:35.432Z,1.00
2023-01-17T03:20:39.959Z,0.87
2023-01-17T03:25:43.011Z,1.50
2023-01-17T03:30:46.438Z,1.23
2023-01-17T03:35:51.031Z,1.30
2023-01-17T03:40:54.516Z,1.50
2023-01-17T03:46:04.096Z,1.40
2023-01-17T03:51:08.802Z,1.70
2023-01-17T03:56:11.869Z,1.40
2023-01-17T04:01:15.082Z,2.13
2023-01-17T04:06:19.543Z,1.70
2023-01-17T04:11:22.586Z,1.50
2023-01-17T04:16:30.212Z,1.40
2023-01-17T04:21:34.762Z,1.33
2023-01-17T04:26:39.829Z,1.67
2023-01-17T04:31:42.834Z,1.23
2023-01-17T04:36:47.407Z,4.50
2023-01-17T04:41:50.472Z,1.40
2023-01-17T04:46:53.549Z,1.53
2023-01-17T04:52:00.165Z,1.53
2023-01-17T04:57:03.117Z,2.90
2023-01-17T05:02:07.961Z,1.63
2023-01-17T05:07:12.450Z,1.63
2023-01-17T05:12:18.291Z,1.70
2023-01-17T05:17:21.425Z,2.00
2023-01-17T05:22:25.873Z,1.63
2023-01-17T05:27:29.617Z,1.57
2023-01-17T05:32:32.614Z,1.70
2023-01-17T05:37:37.028Z,1.60
2023-01-17T05:42:40.159Z,2.20
2023-01-17T05:47:43.197Z,2.00
2023-01-17T05:52:52.957Z,1.60
2023-01-17T05:57:56.749Z,1.73
2023-01-17T06:03:01.555Z,1.93
2023-01-17T06:08:06.743Z,1.90
2023-01-17T06:13:12.695Z,2.40
2023-01-17T06:18:17.351Z,2.13
2023-01-17T06:23:23.350Z,2.30
2023-01-17T06:28:26.374Z,1.63
2023-01-17T06:33:31.517Z,2.37
2023-01-17T06:38:36.018Z,2.40
2023-01-17T06:43:39.371Z,1.83
2023-01-17T06:48:43.675Z,2.00
2023-01-17T06:53:48.875Z,2.03
2023-01-17T06:58:52.598Z,1.47
2023-01-17T07:03:55.670Z,2.30
2023-01-17T07:09:01.270Z,2.00
2023-01-17T07:14:04.301Z,2.37
2023-01-17T07:19:07.274Z,2.20
2023-01-17T07:24:11.919Z,2.40
2023-01-17T07:29:14.969Z,2.90
2023-01-17T07:34:18.255Z,3.10
2023-01-17T07:39:22.783Z,4.20
2023-01-17T07:44:25.853Z,4.47
2023-01-17T07:49:29.013Z,5.03
2023-01-17T07:54:39.886Z,5.23
2023-01-17T07:59:42.990Z,6.33
2023-01-17T08:04:46.376Z,6.03
2023-01-17T08:09:50.833Z,6.37
2023-01-17T08:14:57.199Z,5.87
2023-01-17T08:20:00.615Z,6.63
2023-01-17T08:25:05.707Z,6.33
2023-01-17T08:30:10.403Z,7.13
2023-01-17T08:35:14.178Z,7.03
2023-01-17T08:40:19.769Z,7.57
2023-01-17T08:45:22.795Z,6.40
2023-01-17T08:50:26.114Z,6.87
2023-01-17T08:55:33.734Z,6.33
2023-01-17T09:00:37.369Z,7.13
2023-01-17T09:05:40.885Z,6.20
2023-01-17T09:10:46.063Z,8.10
2023-01-17T09:15:49.295Z,7.33
2023-01-17T09:20:55.241Z,7.43
2023-01-17T09:26:04.126Z,9.17
2023-01-17T09:31:08.831Z,7.97
2023-01-17T09:36:12.349Z,7.87
2023-01-17T09:41:27.942Z,7.40
2023-01-17T09:46:34.605Z,7.27
2023-01-17T09:51:38.622Z,6.67
2023-01-17T09:56:53.277Z,8.70
2023-01-17T10:02:07.253Z,8.83
2023-01-17T10:07:27.717Z,7.30
2023-01-17T10:12:40.745Z,7.47
2023-01-17T10:17:54.669Z,7.30
2023-01-17T10:23:12.665Z,7.60
2023-01-17T10:28:21.468Z,7.50
2023-01-17T10:33:32.623Z,7.87
2023-01-17T10:38:38.023Z,7.00
2023-01-17T10:43:47.876Z,7.03
2023-01-17T10:48:53.698Z,7.57
2023-01-17T10:54:13.213Z,6.23
2023-01-17T10:59:28.690Z,7.40
2023-01-17T11:04:35.894Z,6.47
2023-01-17T11:09:40.634Z,6.97
2023-01-17T11:14:58.904Z,7.37
2023-01-17T11:20:16.784Z,5.83
2023-01-17T11:25:23.249Z,7.00
2023-01-17T11:30:29.505Z,6.97
2023-01-17T11:35:37.629Z,5.63
2023-01-17T11:40:42.897Z,5.13
2023-01-17T11:45:48.577Z,4.30
2023-01-17T11:50:57.471Z,4.13
2023-01-17T11:56:06.351Z,4.00
2023-01-17T12:01:23.858Z,3.60
2023-01-17T12:06:51.505Z,2.97
2023-01-17T12:12:28.365Z,1.90
2023-01-17T12:17:47.669Z,1.97
2023-01-17T12:23:14.141Z,1.90
2023-01-17T12:28:41.569Z,2.30
2023-01-17T12:33:53.857Z,2.00
2023-01-17T12:39:00.142Z,1.90
2023-01-17T12:44:03.389Z,2.03
2023-01-17T12:49:21.884Z,2.27
2023-01-17T12:54:32.750Z,2.27
2023-01-17T12:59:41.867Z,2.10
2023-01-17T13:04:58.781Z,2.20
2023-01-17T13:10:22.282Z,2.30
2023-01-17T13:15:28.372Z,1.97
2023-01-17T13:20:42.867Z,1.60
2023-01-17T13:25:49.413Z,1.80
2023-01-17T13:31:22.185Z,1.83
2023-01-17T13:36:47.090Z,1.90
2023-01-17T13:41:54.247Z,1.37
2023-01-17T13:47:00.774Z,1.50
2023-01-17T13:52:10.130Z,1.77
2023-01-17T13:57:47.254Z,1.97
2023-01-17T14:02:57.554Z,2.20
2023-01-17T14:08:14.183Z,1.60
2023-01-17T14:13:34.065Z,2.20
2023-01-17T14:18:41.905Z,1.30
2023-01-17T14:24:17.401Z,1.30
2023-01-17T14:29:54.799Z,5.63
2023-01-17T14:34:58.468Z,1.13
2023-01-17T14:40:15.299Z,1.40
2023-01-17T14:45:25.442Z,1.30
2023-01-17T14:50:31.444Z,1.10
2023-01-17T14:55:36.584Z,3.80
2023-01-17T15:00:40.735Z,1.10
2023-01-17T15:06:29.672Z,0.93
2023-01-17T15:11:36.741Z,0.70
2023-01-17T15:16:41.093Z,0.90
2023-01-17T15:21:46.964Z,1.07
2023-01-17T15:26:51.433Z,1.10
2023-01-17T15:31:58.535Z,1.00
2023-01-17T15:37:08.610Z,0.80
2023-01-17T15:42:22.902Z,0.80
2023-01-17T15:47:29.830Z,1.57
2023-01-17T15:52:49.256Z,1.63
2023-01-17T15:57:54.170Z,1.73
2023-01-17T16:02:58.996Z,1.60
2023-01-17T16:08:31.542Z,1.70
2023-01-17T16:13:39.463Z,1.47
2023-01-17T16:18:43.118Z,1.97
2023-01-17T16:23:46.477Z,2.03
2023-01-17T16:28:51.161Z,1.90
2023-01-17T16:33:54.263Z,2.10
2023-01-17T16:38:57.284Z,2.03
2023-01-17T16:44:05.400Z,2.40
2023-01-17T16:49:08.481Z,2.60
2023-01-17T16:54:11.612Z,2.27
2023-01-17T16:59:16.173Z,2.50
2023-01-17T17:04:19.253Z,3.27
2023-01-17T17:09:22.388Z,3.57
2023-01-17T17:14:26.925Z,2.90
2023-01-17T17:19:30.040Z,2.90
2023-01-17T17:24:34.196Z,3.40
2023-01-17T17:29:38.979Z,3.27
2023-01-17T17:34:42.057Z,3.50
2023-01-17T17:39:45.547Z,3.10
2023-01-17T17:44:50.291Z,3.40
2023-01-17T17:49:53.310Z,4.63
2023-01-17T17:54:56.428Z,3.97
2023-01-17T18:00:01.158Z,3.57
2023-01-17T18:05:10.909Z,3.20
2023-01-17T18:10:14.259Z,3.10
2023-01-17T18:15:24.313Z,3.63
2023-01-17T18:20:29.072Z,3.30
2023-01-17T18:25:32.488Z,3.87
2023-01-17T18:30:38.556Z,3.33
2023-01-17T18:35:44.273Z,3.63
2023-01-17T18:40:47.731Z,3.57
2023-01-17T18:45:55.243Z,3.40
2023-01-17T18:51:00.359Z,4.27
2023-01-17T18:56:06.898Z,4.20
2023-01-17T19:01:14.322Z,4.27
2023-01-17T19:06:20.680Z,4.17
2023-01-17T19:11:25.437Z,4.70
2023-01-17T19:16:32.674Z,5.50
2023-01-17T19:21:36.531Z,5.07
2023-01-17T19:26:39.647Z,6.23
2023-01-17T19:31:44.032Z,5.43
2023-01-17T19:36:47.670Z,7.30
2023-01-17T19:41:51.146Z,7.03
2023-01-17T19:46:56.842Z,7.17
2023-01-17T19:51:59.994Z,6.53
2023-01-17T19:57:03.161Z,5.07
2023-01-17T20:02:07.669Z,6.20
2023-01-17T20:07:10.774Z,6.40
2023-01-17T20:12:13.886Z,6.90
2023-01-17T20:17:18.790Z,7.17
2023-01-17T20:22:22.101Z,6.90
2023-01-17T20:27:26.600Z,7.67
2023-01-17T20:32:31.083Z,6.67
2023-01-17T20:37:34.210Z,5.43
2023-01-17T20:42:37.743Z,7.37
2023-01-17T20:47:42.160Z,6.27
2023-01-17T20:52:45.533Z,8.17
2023-01-17T20:57:48.766Z,7.70
2023-01-17T21:02:55.189Z,6.17
2023-01-17T21:07:58.725Z,6.53
2023-01-17T21:13:02.574Z,5.67
2023-01-17T21:18:07.176Z,5.80
2023-01-17T21:23:17.885Z,5.70
2023-01-17T21:28:21.267Z,5.90
2023-01-17T21:33:29.764Z,4.60
2023-01-17T21:38:32.917Z,5.27
2023-01-17T21:43:36.323Z,5.50
2023-01-17T21:48:41.591Z,5.00
2023-01-17T21:53:44.680Z,5.77
2023-01-17T21:58:49.290Z,5.37
2023-01-17T22:03:55.374Z,6.20
2023-01-17T22:08:59.532Z,6.83
2023-01-17T22:14:05.487Z,7.23
2023-01-17T22:19:10.255Z,7.20
2023-01-17T22:24:16.020Z,6.53
2023-01-17T22:29:19.189Z,6.33
2023-01-17T22:34:24.033Z,6.13
2023-01-17T22:39:27.232Z,5.90
2023-01-17T22:44:30.466Z,6.07
2023-01-17T22:49:34.876Z,6.30
2023-01-17T22:54:43.314Z,6.03
2023-01-17T22:59:46.392Z,6.80
2023-01-17T23:04:50.796Z,5.87
2023-01-17T23:09:54.592Z,6.30
2023-01-17T23:15:15.397Z,5.47
2023-01-17T23:20:19.864Z,5.40
2023-01-17T23:25:23.190Z,5.40
2023-01-17T23:30:29.179Z,5.63
2023-01-17T23:35:41.540Z,4.57
2023-01-17T23:41:05.569Z,4.93
2023-01-17T23:46:13.017Z,4.87
2023-01-17T23:51:17.736Z,4.80
2023-01-17T23:56:23.502Z,4.80
